createdAt,value
2018-12-18T00:02:06.710Z,73.43
2018-12-18T00:04:34.195Z,66.30
2018-12-18T00:07:02.059Z,78.07
2018-12-18T00:09:30.381Z,74.63
2018-12-18T00:11:59.370Z,90.13
2018-12-18T00:14:27.129Z,106.60
2018-12-18T00:16:54.640Z,103.10
2018-12-18T00:19:22.150Z,101.80
2018-12-18T00:21:49.753Z,102.83
2018-12-18T00:24:17.250Z,103.37
2018-12-18T00:26:44.751Z,102.10
2018-12-18T00:29:12.304Z,104.70
2018-12-18T00:31:39.800Z,97.40
2018-12-18T00:34:07.296Z,96.67
2018-12-18T00:36:34.789Z,95.17
2018-12-18T00:39:02.294Z,90.27
2018-12-18T00:41:29.805Z,87.30
2018-12-18T00:43:57.320Z,91.50
2018-12-18T00:46:24.826Z,99.13
2018-12-18T00:48:52.322Z,125.63
2018-12-18T00:51:19.870Z,125.13
2018-12-18T00:53:47.357Z,126.23
2018-12-18T00:56:14.857Z,134.70
2018-12-18T00:58:42.373Z,126.10
2018-12-18T01:01:09.902Z,124.07
2018-12-18T01:03:37.413Z,120.03
2018-12-18T01:06:04.915Z,122.17
2018-12-18T01:08:32.436Z,123.37
2018-12-18T01:10:59.938Z,119.80
2018-12-18T01:13:27.466Z,119.53
2018-12-18T01:15:54.980Z,111.07
2018-12-18T01:18:22.497Z,115.53
2018-12-18T01:20:50.469Z,117.43
2018-12-18T01:23:17.969Z,119.40
2018-12-18T01:25:45.490Z,114.50
2018-12-18T01:28:12.998Z,107.50
2018-12-18T01:30:40.549Z,119.83
2018-12-18T01:33:08.043Z,149.57
2018-12-18T01:35:36.332Z,144.07
2018-12-18T01:38:03.842Z,146.57
2018-12-18T01:40:31.465Z,129.33
2018-12-18T01:42:58.962Z,134.50
2018-12-18T01:45:26.461Z,131.87
2018-12-18T01:47:53.974Z,145.60
2018-12-18T01:50:21.569Z,150.77
2018-12-18T01:52:49.065Z,141.23
2018-12-18T01:55:16.590Z,138.43
2018-12-18T01:57:44.107Z,142.77
2018-12-18T02:00:11.612Z,135.73
2018-12-18T02:02:39.126Z,140.57
2018-12-18T02:05:06.627Z,135.73
2018-12-18T02:07:34.137Z,133.40
2018-12-18T02:10:02.410Z,132.87
2018-12-18T02:12:30.053Z,132.67
2018-12-18T02:14:57.548Z,124.73
2018-12-18T02:17:25.820Z,122.20
2018-12-18T02:19:53.354Z,129.03
2018-12-18T02:22:20.847Z,126.30
2018-12-18T02:24:48.363Z,124.43
2018-12-18T02:27:15.858Z,142.40
2018-12-18T02:29:43.364Z,155.60
2018-12-18T02:32:10.857Z,148.73
2018-12-18T02:34:38.348Z,144.70
2018-12-18T02:37:05.861Z,146.00
2018-12-18T02:39:33.362Z,143.60
2018-12-18T02:42:01.020Z,143.73
2018-12-18T02:44:28.544Z,135.83
2018-12-18T02:46:56.059Z,139.30
2018-12-18T02:49:24.054Z,153.10
2018-12-18T02:51:51.561Z,145.97
2018-12-18T02:54:19.070Z,146.40
2018-12-18T02:56:46.569Z,140.43
2018-12-18T02:59:14.075Z,136.20
2018-12-18T03:01:41.624Z,134.90
2018-12-18T03:04:09.183Z,116.60
2018-12-18T03:06:37.028Z,134.47
2018-12-18T03:09:05.531Z,130.10
2018-12-18T03:11:33.029Z,129.73
2018-12-18T03:14:00.701Z,124.13
2018-12-18T03:16:28.208Z,120.43
2018-12-18T03:18:56.325Z,118.90
2018-12-18T03:21:23.847Z,100.87
2018-12-18T03:23:51.340Z,128.53
2018-12-18T03:26:18.853Z,123.40
2018-12-18T03:28:46.346Z,115.63
2018-12-18T03:31:14.574Z,111.33
2018-12-18T03:33:42.362Z,109.93
2018-12-18T03:36:09.866Z,105.13
2018-12-18T03:38:37.373Z,98.80
2018-12-18T03:41:04.886Z,72.30
2018-12-18T03:43:32.374Z,73.47
2018-12-18T03:46:00.641Z,76.17
2018-12-18T03:48:28.413Z,71.93
2018-12-18T03:50:55.914Z,65.67
2018-12-18T03:53:24.148Z,62.87
2018-12-18T03:55:51.672Z,62.60
2018-12-18T03:58:19.156Z,56.73
2018-12-18T04:00:46.646Z,57.03
2018-12-18T04:03:14.161Z,53.37
2018-12-18T04:05:41.648Z,49.70
2018-12-18T04:08:09.157Z,51.70
2018-12-18T04:10:36.653Z,48.67
2018-12-18T04:13:04.232Z,47.27
2018-12-18T04:15:31.729Z,46.37
2018-12-18T04:17:59.226Z,41.40
2018-12-18T04:20:26.715Z,41.93
2018-12-18T04:22:54.216Z,40.20
2018-12-18T04:25:21.722Z,40.53
2018-12-18T04:27:49.229Z,39.13
2018-12-18T04:30:17.139Z,37.03
2018-12-18T04:32:44.799Z,34.77
2018-12-18T04:35:12.580Z,34.63
2018-12-18T04:37:40.449Z,33.73
2018-12-18T04:40:08.209Z,30.87
2018-12-18T04:42:35.708Z,31.80
2018-12-18T04:45:03.721Z,30.93
2018-12-18T04:47:31.229Z,28.67
2018-12-18T04:49:58.726Z,27.07
2018-12-18T04:52:26.269Z,27.57
2018-12-18T04:54:53.768Z,28.00
2018-12-18T04:57:21.259Z,23.60
2018-12-18T04:59:49.131Z,25.37
2018-12-18T05:02:16.793Z,23.20
2018-12-18T05:04:50.311Z,23.43
2018-12-18T05:07:14.642Z,22.93
2018-12-18T05:09:42.128Z,22.23
2018-12-18T05:12:09.614Z,22.67
2018-12-18T05:14:37.121Z,19.67
2018-12-18T05:17:04.610Z,19.13
2018-12-18T05:19:32.111Z,20.80
2018-12-18T05:21:59.629Z,19.80
2018-12-18T05:24:27.155Z,18.83
2018-12-18T05:26:54.667Z,17.70
2018-12-18T05:29:22.185Z,18.47
2018-12-18T05:31:49.698Z,17.50
2018-12-18T05:34:17.184Z,16.70
2018-12-18T05:36:44.774Z,17.63
2018-12-18T05:39:12.335Z,16.57
2018-12-18T05:41:39.873Z,16.00
2018-12-18T05:44:07.353Z,14.90
2018-12-18T05:46:34.865Z,15.10
2018-12-18T05:49:02.814Z,14.53
2018-12-18T05:51:30.411Z,14.57
2018-12-18T05:53:57.912Z,14.03
2018-12-18T05:56:25.501Z,13.83
2018-12-18T05:58:53.011Z,13.60
2018-12-18T06:01:20.516Z,13.57
2018-12-18T06:03:48.030Z,13.63
2018-12-18T06:06:15.517Z,13.43
2018-12-18T06:08:43.024Z,13.20
2018-12-18T06:11:10.512Z,13.70
2018-12-18T06:13:38.008Z,13.80
2018-12-18T06:16:05.500Z,11.70
2018-12-18T06:18:33.002Z,13.30
2018-12-18T06:21:02.469Z,11.87
2018-12-18T06:23:30.041Z,11.43
2018-12-18T06:25:57.529Z,12.07
2018-12-18T06:28:25.040Z,11.67
2018-12-18T06:30:52.536Z,11.80
2018-12-18T06:33:20.021Z,11.97
2018-12-18T06:35:47.538Z,11.40
2018-12-18T06:38:15.306Z,10.70
2018-12-18T06:40:42.859Z,11.67
2018-12-18T06:43:10.371Z,10.43
2018-12-18T06:45:37.864Z,10.17
2018-12-18T06:48:05.353Z,10.63
2018-12-18T06:50:32.852Z,9.60
2018-12-18T06:53:00.356Z,9.70
2018-12-18T06:55:27.850Z,9.37
2018-12-18T06:57:55.345Z,8.90
2018-12-18T07:00:23.714Z,8.73
2018-12-18T07:02:51.264Z,8.37
2018-12-18T07:05:19.423Z,8.23
2018-12-18T07:07:46.926Z,8.33
2018-12-18T07:10:14.414Z,7.30
2018-12-18T07:12:42.324Z,7.23
2018-12-18T07:15:09.842Z,7.07
2018-12-18T07:17:37.337Z,7.27
2018-12-18T07:20:05.202Z,7.20
2018-12-18T07:22:32.705Z,7.03
2018-12-18T07:25:00.225Z,7.17
2018-12-18T07:27:27.720Z,6.50
2018-12-18T07:29:55.217Z,6.77
2018-12-18T07:32:22.709Z,6.40
2018-12-18T07:34:50.288Z,6.07
2018-12-18T07:37:17.765Z,5.83
2018-12-18T07:39:45.262Z,6.17
2018-12-18T07:42:12.765Z,5.90
2018-12-18T07:44:40.255Z,6.73
2018-12-18T07:47:07.753Z,6.37
2018-12-18T07:49:35.252Z,6.70
2018-12-18T07:52:02.772Z,6.53
2018-12-18T07:54:30.347Z,6.27
2018-12-18T07:56:57.890Z,6.53
2018-12-18T07:59:26.052Z,5.33
2018-12-18T08:01:53.550Z,5.90
2018-12-18T08:04:21.238Z,6.10
2018-12-18T08:06:48.939Z,6.20
2018-12-18T08:09:16.437Z,5.63
2018-12-18T08:11:44.689Z,5.80
2018-12-18T08:14:12.172Z,6.83
2018-12-18T08:16:40.249Z,4.97
2018-12-18T08:19:07.751Z,6.07
2018-12-18T08:21:35.255Z,6.17
2018-12-18T08:24:02.752Z,6.07
2018-12-18T08:26:30.238Z,5.17
2018-12-18T08:28:57.822Z,6.47
2018-12-18T08:31:25.565Z,5.23
2018-12-18T08:33:53.130Z,6.23
2018-12-18T08:36:20.615Z,5.60
2018-12-18T08:38:48.097Z,6.40
2018-12-18T08:41:15.910Z,6.40
2018-12-18T08:43:43.400Z,5.90
2018-12-18T08:46:10.935Z,5.77
2018-12-18T08:48:38.433Z,5.57
2018-12-18T08:51:06.285Z,5.73
2018-12-18T08:53:34.062Z,5.43
2018-12-18T08:56:01.553Z,5.93
2018-12-18T08:58:29.045Z,5.53
2018-12-18T09:00:56.524Z,5.83
2018-12-18T09:03:24.021Z,5.30
2018-12-18T09:05:51.518Z,5.57
2018-12-18T09:08:19.017Z,5.37
2018-12-18T09:10:47.341Z,5.90
2018-12-18T09:13:15.117Z,5.97
2018-12-18T09:15:48.334Z,5.57
2018-12-18T09:18:15.840Z,5.97
2018-12-18T09:20:43.331Z,5.23
2018-12-18T09:23:10.817Z,8.30
2018-12-18T09:25:38.320Z,11.50
2018-12-18T09:28:06.182Z,11.23
2018-12-18T09:30:33.782Z,13.60
2018-12-18T09:33:01.434Z,14.33
2018-12-18T09:35:28.940Z,13.60
2018-12-18T09:38:02.121Z,14.17
2018-12-18T09:40:31.581Z,14.07
2018-12-18T09:43:04.882Z,13.03
2018-12-18T09:45:32.370Z,13.07
2018-12-18T09:47:59.877Z,12.53
2018-12-18T09:50:27.445Z,12.10
2018-12-18T09:52:54.984Z,13.03
2018-12-18T09:55:22.492Z,11.37
2018-12-18T09:57:58.185Z,11.20
2018-12-18T10:00:25.669Z,11.93
2018-12-18T10:02:53.168Z,11.57
2018-12-18T10:05:20.671Z,12.70
2018-12-18T10:07:48.173Z,16.70
2018-12-18T10:10:16.069Z,28.80
2018-12-18T10:12:45.531Z,28.23
2018-12-18T10:15:13.298Z,37.13
2018-12-18T10:17:40.786Z,42.73
2018-12-18T10:20:08.654Z,35.83
2018-12-18T10:22:36.141Z,36.50
2018-12-18T10:25:03.641Z,35.90
2018-12-18T10:27:31.261Z,37.80
2018-12-18T10:29:58.754Z,56.10
2018-12-18T10:32:26.274Z,49.67
2018-12-18T10:34:53.849Z,59.97
2018-12-18T10:37:21.378Z,58.07
2018-12-18T10:39:49.407Z,61.87
2018-12-18T10:42:17.766Z,59.17
2018-12-18T10:44:45.279Z,60.80
2018-12-18T10:47:12.787Z,59.10
2018-12-18T10:49:40.280Z,57.17
2018-12-18T10:52:07.791Z,55.53
2018-12-18T10:54:35.278Z,58.03
2018-12-18T10:57:02.798Z,75.37
2018-12-18T10:59:30.287Z,73.87
2018-12-18T11:02:00.440Z,75.27
2018-12-18T11:04:28.498Z,81.67
2018-12-18T11:06:56.019Z,76.27
2018-12-18T11:09:23.525Z,73.97
2018-12-18T11:11:51.030Z,76.10
2018-12-18T11:14:18.536Z,71.97
2018-12-18T11:16:46.053Z,89.57
2018-12-18T11:19:13.614Z,91.17
2018-12-18T11:21:41.158Z,95.87
2018-12-18T11:24:08.661Z,89.57
2018-12-18T11:26:36.190Z,92.20
2018-12-18T11:29:03.714Z,93.23
2018-12-18T11:31:31.742Z,78.27
2018-12-18T11:33:59.312Z,74.60
2018-12-18T11:36:26.889Z,79.60
2018-12-18T11:38:54.394Z,74.87
2018-12-18T11:41:21.921Z,77.77
2018-12-18T11:43:49.413Z,72.10
2018-12-18T11:46:16.925Z,79.17
2018-12-18T11:48:44.424Z,87.60
2018-12-18T11:51:12.147Z,95.60
2018-12-18T11:53:39.650Z,93.17
2018-12-18T11:56:07.154Z,81.87
2018-12-18T11:58:35.372Z,82.13
2018-12-18T12:01:02.862Z,80.43
2018-12-18T12:03:30.369Z,80.97
2018-12-18T12:05:57.899Z,71.90
2018-12-18T12:08:25.390Z,72.67
2018-12-18T12:10:52.882Z,76.50
2018-12-18T12:13:20.398Z,70.67
2018-12-18T12:15:47.908Z,72.50
2018-12-18T12:18:15.478Z,84.03
2018-12-18T12:20:43.646Z,78.37
2018-12-18T12:23:11.149Z,84.83
2018-12-18T12:25:38.651Z,100.57
2018-12-18T12:28:06.344Z,93.53
2018-12-18T12:30:34.161Z,95.63
2018-12-18T12:33:01.655Z,88.20
2018-12-18T12:35:29.197Z,85.47
2018-12-18T12:37:56.691Z,77.13
2018-12-18T12:40:24.202Z,67.50
2018-12-18T12:42:51.711Z,70.60
2018-12-18T12:45:19.204Z,72.53
2018-12-18T12:47:47.886Z,68.40
2018-12-18T12:50:15.553Z,68.30
2018-12-18T12:52:43.056Z,65.97
2018-12-18T12:55:10.553Z,65.00
2018-12-18T12:57:38.087Z,62.20
2018-12-18T13:00:06.813Z,93.20
2018-12-18T13:02:34.376Z,61.53
2018-12-18T13:05:01.907Z,77.07
2018-12-18T13:07:29.418Z,71.67
2018-12-18T13:09:56.922Z,66.40
2018-12-18T13:12:24.445Z,64.30
2018-12-18T13:14:51.957Z,64.20
2018-12-18T13:17:19.486Z,61.47
2018-12-18T13:19:47.010Z,61.33
2018-12-18T13:22:14.989Z,64.73
2018-12-18T13:24:42.493Z,60.03
2018-12-18T13:27:10.007Z,59.13
2018-12-18T13:29:37.867Z,57.57
2018-12-18T13:32:06.557Z,54.67
2018-12-18T13:34:34.051Z,53.00
2018-12-18T13:37:02.073Z,63.13
2018-12-18T13:39:29.576Z,80.43
2018-12-18T13:41:57.078Z,67.73
2018-12-18T13:44:24.591Z,67.67
2018-12-18T13:46:52.233Z,60.67
2018-12-18T13:49:19.743Z,60.07
2018-12-18T13:51:47.242Z,65.90
2018-12-18T13:54:16.622Z,61.70
2018-12-18T13:56:44.155Z,60.50
2018-12-18T13:59:11.667Z,62.50
2018-12-18T14:01:39.164Z,61.23
2018-12-18T14:04:06.684Z,58.10
2018-12-18T14:06:34.190Z,48.47
2018-12-18T14:09:01.722Z,48.90
2018-12-18T14:11:29.216Z,50.43
2018-12-18T14:13:56.729Z,45.53
2018-12-18T14:16:24.507Z,46.40
2018-12-18T14:18:52.353Z,47.83
2018-12-18T14:21:19.858Z,49.37
2018-12-18T14:23:47.369Z,49.83
2018-12-18T14:26:14.870Z,48.17
2018-12-18T14:28:42.374Z,49.70
2018-12-18T14:31:09.890Z,44.77
2018-12-18T14:33:37.384Z,45.93
2018-12-18T14:36:04.926Z,45.33
2018-12-18T14:38:32.413Z,43.93
2018-12-18T14:40:59.922Z,43.67
2018-12-18T14:43:27.422Z,41.20
2018-12-18T14:45:54.993Z,43.20
2018-12-18T14:48:23.107Z,41.10
2018-12-18T14:50:50.624Z,38.80
2018-12-18T14:53:18.148Z,39.80
2018-12-18T14:55:45.707Z,38.70
2018-12-18T14:58:13.197Z,35.20
2018-12-18T15:00:40.730Z,33.43
2018-12-18T15:03:08.247Z,30.97
2018-12-18T15:05:35.765Z,30.77
2018-12-18T15:08:03.273Z,29.83
2018-12-18T15:10:30.777Z,29.47
2018-12-18T15:12:58.276Z,30.40
2018-12-18T15:15:25.784Z,28.07
2018-12-18T15:17:53.321Z,25.70
2018-12-18T15:20:20.826Z,27.23
2018-12-18T15:22:48.309Z,25.90
2018-12-18T15:25:15.822Z,23.90
2018-12-18T15:27:43.351Z,23.77
2018-12-18T15:30:10.888Z,23.63
2018-12-18T15:32:38.566Z,22.83
2018-12-18T15:35:06.074Z,22.57
2018-12-18T15:37:33.585Z,21.50
2018-12-18T15:40:01.110Z,20.83
2018-12-18T15:42:28.690Z,20.00
2018-12-18T15:44:56.207Z,20.83
2018-12-18T15:47:23.711Z,21.93
2018-12-18T15:49:51.234Z,20.03
2018-12-18T15:52:18.738Z,19.70
2018-12-18T15:54:46.234Z,18.87
2018-12-18T15:57:13.746Z,17.00
2018-12-18T15:59:41.278Z,18.03
2018-12-18T16:02:09.077Z,17.93
2018-12-18T16:04:36.561Z,16.07
2018-12-18T16:07:04.093Z,16.70
2018-12-18T16:09:33.150Z,16.17
2018-12-18T16:12:00.751Z,16.70
2018-12-18T16:14:28.427Z,16.50
2018-12-18T16:16:55.978Z,17.13
2018-12-18T16:19:23.685Z,17.97
2018-12-18T16:21:51.485Z,16.87
2018-12-18T16:24:18.990Z,17.23
2018-12-18T16:26:46.519Z,16.07
2018-12-18T16:29:14.152Z,16.03
2018-12-18T16:31:41.644Z,16.07
2018-12-18T16:34:09.156Z,16.43
2018-12-18T16:36:36.711Z,14.33
2018-12-18T16:39:06.641Z,14.80
2018-12-18T16:41:34.164Z,14.53
2018-12-18T16:44:01.695Z,13.67
2018-12-18T16:46:29.215Z,14.03
2018-12-18T16:48:56.733Z,13.73
2018-12-18T16:51:24.261Z,11.70
2018-12-18T16:53:51.775Z,11.20
2018-12-18T16:56:19.279Z,12.37
2018-12-18T16:58:46.838Z,11.80
2018-12-18T17:01:14.335Z,10.63
2018-12-18T17:03:41.847Z,11.80
2018-12-18T17:06:09.547Z,11.77
2018-12-18T17:08:38.026Z,15.50
2018-12-18T17:11:05.559Z,35.07
2018-12-18T17:13:33.049Z,33.97
2018-12-18T17:16:00.582Z,35.97
2018-12-18T17:18:28.089Z,33.87
2018-12-18T17:20:55.641Z,32.77
2018-12-18T17:23:23.130Z,33.10
2018-12-18T17:25:50.642Z,33.90
2018-12-18T17:28:18.157Z,34.70
2018-12-18T17:30:45.656Z,31.47
2018-12-18T17:33:13.229Z,31.80
2018-12-18T17:35:41.981Z,31.50
2018-12-18T17:38:09.760Z,29.43
2018-12-18T17:40:37.337Z,27.20
2018-12-18T17:43:04.863Z,27.30
2018-12-18T17:45:33.134Z,28.97
2018-12-18T17:48:01.002Z,34.00
2018-12-18T17:50:28.554Z,34.77
2018-12-18T17:52:56.148Z,31.33
2018-12-18T17:55:23.810Z,34.70
2018-12-18T17:57:51.305Z,39.80
2018-12-18T18:00:18.929Z,42.50
2018-12-18T18:02:46.973Z,41.40
2018-12-18T18:05:14.633Z,49.60
2018-12-18T18:07:43.091Z,42.47
2018-12-18T18:10:11.318Z,39.60
2018-12-18T18:12:38.902Z,39.87
2018-12-18T18:15:07.312Z,38.10
2018-12-18T18:17:34.834Z,35.97
2018-12-18T18:20:02.344Z,34.50
2018-12-18T18:22:29.856Z,32.30
2018-12-18T18:24:57.366Z,36.50
2018-12-18T18:27:24.855Z,37.33
2018-12-18T18:29:52.365Z,39.77
2018-12-18T18:32:19.863Z,41.40
2018-12-18T18:34:47.369Z,39.10
2018-12-18T18:37:14.870Z,40.43
2018-12-18T18:39:42.409Z,39.23
2018-12-18T18:42:10.157Z,36.33
2018-12-18T18:44:38.062Z,33.80
2018-12-18T18:47:05.557Z,33.30
2018-12-18T18:49:33.731Z,33.77
2018-12-18T18:52:01.213Z,31.80
2018-12-18T18:54:28.748Z,30.87
2018-12-18T18:56:56.246Z,29.97
2018-12-18T18:59:23.797Z,30.03
2018-12-18T19:01:51.306Z,31.10
2018-12-18T19:04:18.810Z,37.83
2018-12-18T19:06:46.433Z,40.47
2018-12-18T19:09:13.923Z,40.83
2018-12-18T19:11:41.445Z,40.40
2018-12-18T19:14:09.121Z,40.63
2018-12-18T19:16:36.629Z,40.00
2018-12-18T19:19:04.135Z,34.33
2018-12-18T19:21:31.658Z,34.63
2018-12-18T19:23:59.167Z,32.40
2018-12-18T19:26:26.797Z,32.80
2018-12-18T19:28:54.472Z,36.40
2018-12-18T19:31:22.068Z,39.63
2018-12-18T19:33:49.578Z,39.63
2018-12-18T19:36:17.080Z,39.00
2018-12-18T19:38:44.588Z,37.80
2018-12-18T19:41:12.098Z,38.33
2018-12-18T19:43:39.605Z,33.37
2018-12-18T19:46:07.694Z,34.33
2018-12-18T19:48:35.667Z,33.03
2018-12-18T19:51:03.192Z,31.40
2018-12-18T19:53:30.693Z,31.13
2018-12-18T19:55:58.183Z,29.70
2018-12-18T19:58:25.708Z,29.50
2018-12-18T20:00:53.347Z,38.97
2018-12-18T20:03:20.842Z,42.80
2018-12-18T20:05:48.345Z,46.97
2018-12-18T20:08:15.863Z,42.87
2018-12-18T20:10:43.356Z,42.97
2018-12-18T20:13:10.887Z,42.03
2018-12-18T20:15:38.377Z,40.57
2018-12-18T20:18:05.891Z,38.30
2018-12-18T20:20:33.391Z,36.40
2018-12-18T20:23:01.194Z,34.00
2018-12-18T20:25:28.704Z,34.13
2018-12-18T20:27:56.222Z,33.03
2018-12-18T20:30:23.745Z,30.73
2018-12-18T20:32:51.247Z,30.43
2018-12-18T20:35:18.754Z,28.60
2018-12-18T20:37:46.306Z,28.77
2018-12-18T20:40:13.990Z,32.17
2018-12-18T20:42:41.719Z,44.30
2018-12-18T20:45:09.629Z,45.23
2018-12-18T20:47:37.123Z,43.43
2018-12-18T20:50:05.832Z,40.93
2018-12-18T20:52:33.331Z,41.33
2018-12-18T20:55:00.851Z,39.97
2018-12-18T20:57:28.370Z,37.40
2018-12-18T20:59:55.871Z,36.93
2018-12-18T21:02:23.505Z,35.53
2018-12-18T21:04:51.022Z,33.07
2018-12-18T21:07:18.521Z,31.60
2018-12-18T21:09:46.040Z,31.33
2018-12-18T21:12:13.578Z,33.73
2018-12-18T21:14:41.067Z,35.33
2018-12-18T21:17:08.570Z,36.30
2018-12-18T21:19:37.251Z,34.20
2018-12-18T21:22:04.865Z,34.57
2018-12-18T21:24:32.562Z,32.80
2018-12-18T21:27:00.527Z,31.67
2018-12-18T21:29:28.052Z,31.70
2018-12-18T21:31:55.575Z,31.20
2018-12-18T21:34:23.097Z,30.03
2018-12-18T21:36:50.600Z,28.10
2018-12-18T21:39:18.109Z,26.97
2018-12-18T21:41:45.610Z,32.83
2018-12-18T21:44:13.105Z,32.23
2018-12-18T21:46:40.640Z,29.80
2018-12-18T21:49:08.143Z,31.47
2018-12-18T21:51:35.660Z,29.03
2018-12-18T21:54:03.166Z,26.40
2018-12-18T21:56:30.806Z,26.83
2018-12-18T21:58:58.281Z,27.00
2018-12-18T22:01:25.957Z,26.93
2018-12-18T22:03:53.467Z,24.10
2018-12-18T22:06:20.999Z,23.63
2018-12-18T22:08:48.589Z,24.20
2018-12-18T22:11:16.209Z,24.70
2018-12-18T22:13:43.696Z,26.00
2018-12-18T22:16:11.194Z,30.20
2018-12-18T22:18:38.714Z,35.83
2018-12-18T22:21:06.230Z,45.30
2018-12-18T22:23:33.738Z,44.23
2018-12-18T22:26:01.237Z,55.63
2018-12-18T22:28:28.740Z,65.80
2018-12-18T22:30:56.249Z,59.30
2018-12-18T22:33:24.076Z,65.83
2018-12-18T22:35:51.581Z,68.37
2018-12-18T22:38:19.097Z,71.60
2018-12-18T22:40:46.612Z,65.10
2018-12-18T22:43:14.236Z,62.57
2018-12-18T22:45:42.512Z,59.43
2018-12-18T22:48:10.010Z,58.20
2018-12-18T22:50:37.519Z,56.27
2018-12-18T22:53:05.021Z,51.87
2018-12-18T22:55:32.550Z,55.70
2018-12-18T22:58:00.817Z,58.07
2018-12-18T23:00:34.084Z,57.37
2018-12-18T23:03:01.601Z,85.00
2018-12-18T23:05:29.106Z,111.43
2018-12-18T23:07:56.622Z,103.23
2018-12-18T23:10:24.124Z,97.73
2018-12-18T23:12:51.682Z,86.47
2018-12-18T23:15:19.176Z,84.47
2018-12-18T23:17:46.672Z,82.33
2018-12-18T23:20:14.978Z,76.07
2018-12-18T23:22:42.464Z,74.07
2018-12-18T23:25:09.973Z,74.67
2018-12-18T23:27:37.469Z,71.83
2018-12-18T23:30:05.152Z,73.43
2018-12-18T23:32:32.698Z,68.23
2018-12-18T23:35:00.263Z,62.97
2018-12-18T23:37:27.751Z,62.97
2018-12-18T23:39:55.264Z,63.23
2018-12-18T23:42:23.263Z,71.17
2018-12-18T23:44:50.744Z,77.20
2018-12-18T23:47:18.272Z,74.67
2018-12-18T23:49:45.758Z,68.07
2018-12-18T23:52:13.435Z,74.97
2018-12-18T23:54:41.401Z,71.57
2018-12-18T23:57:08.909Z,74.87
2018-12-18T23:59:36.523Z,73.37
